Portada
METAR-TAF:

METAR-TAF

Aeroports :

Talkeetna, Alaska, Estats Units d'Amèrica

latitud: 62-19-14N, longitud: 150-05-37W, altitud: 109 m

Observació

L'informe es va fer fa 19 minuts, a les 07:53 UTC
Vent 7 kt del Sud
Temperatura 20°C
Humitat 56%
Pressió 1014 hPa
Visibilitat: 16.1 km
Escasses núvols a una alçada de 8000 ft

METAR: PATK 250753Z AUTO 17007KT 10SM FEW080 20/11 A2994 RMK AO2 SLP139 T02000111 TSNO

Hora: 00:12 (08:12 UTC)

Pronòstic

L'informe es va fer fa 2 hores i 34 minuts, a les 05:38 UTC
Pronòstic vàlid del 25 a les 06 UTC al 26 a les 06 UTC
Vent 5 kt del Sud/Sud-Oest
Visibilitat: 10 km
Escasses núvols a una alçada de 6000 ft
Núvols disperses a una alçada de 12000 ft

TAF: PATK 250538Z 2506/2606 20005KT P6SM FEW060 SCT120

Observacions i pronòstics meteorològics de més de 4000 aeroports (METAR i TAF).

Les estacions disponibles són els punts grocs i vermells al mapa.

Posi el ratolí al punt desitjat per veure el nom de l'estació.

Feu clic per veure les observacions i els pronòstics meteorològics.

Per canviar el mapa: feu clic els botons verds amb una creu de color negre per apropar; al botó verd amb un guió per allunyar la imatge; o en les fletxes verdes per a mapes adjacents.


METAR-TAF: